createdAt,value
2022-09-04T00:02:10.176Z,4.25
2022-09-04T00:05:00.282Z,4.32
2022-09-04T00:07:31.919Z,6.13
2022-09-04T00:10:29.688Z,8.02
2022-09-04T00:13:06.099Z,4.88
2022-09-04T00:15:39.272Z,3.95
2022-09-04T00:18:21.639Z,3.75
2022-09-04T00:21:10.327Z,4.13
2022-09-04T00:23:55.725Z,6.30
2022-09-04T00:26:42.925Z,4.63
2022-09-04T00:29:45.103Z,3.78
2022-09-04T00:32:23.285Z,4.38
2022-09-04T00:37:33.141Z,5.47
2022-09-04T00:40:24.199Z,4.43
2022-09-04T00:42:58.252Z,5.90
2022-09-04T00:45:27.994Z,6.28
2022-09-04T00:48:12.623Z,5.63
2022-09-04T00:51:15.206Z,4.93
2022-09-04T00:54:04.661Z,5.72
2022-09-04T00:56:56.115Z,5.43
2022-09-04T00:59:42.603Z,4.93
2022-09-04T01:02:18.598Z,5.93
2022-09-04T01:05:19.682Z,5.88
2022-09-04T01:08:18.186Z,5.47
2022-09-04T01:10:58.930Z,5.45
2022-09-04T01:13:57.554Z,5.40
2022-09-04T01:16:41.634Z,6.00
2022-09-04T01:19:39.673Z,7.13
2022-09-04T01:25:02.727Z,5.35
2022-09-04T01:28:01.420Z,5.40
2022-09-04T01:30:39.460Z,5.68
2022-09-04T01:33:15.753Z,8.52
2022-09-04T01:36:16.143Z,5.55
2022-09-04T01:38:56.260Z,5.43
2022-09-04T01:41:48.974Z,5.82
2022-09-04T01:44:15.816Z,5.72
2022-09-04T01:47:34.734Z,6.05
2022-09-04T01:50:12.024Z,6.97
2022-09-04T01:53:10.544Z,6.33
2022-09-04T01:55:55.580Z,6.85
2022-09-04T01:58:42.673Z,8.45
2022-09-04T02:01:15.142Z,7.65
2022-09-04T02:03:58.047Z,6.95
2022-09-04T02:06:31.103Z,7.50
2022-09-04T02:09:15.527Z,5.72
2022-09-04T02:11:51.340Z,6.53
2022-09-04T02:14:27.365Z,6.13
2022-09-04T02:17:08.819Z,6.95
2022-09-04T02:19:47.779Z,7.50
2022-09-04T02:22:34.410Z,8.02
2022-09-04T02:25:26.082Z,6.47
2022-09-04T02:28:05.931Z,6.38
2022-09-04T02:30:43.143Z,6.43
2022-09-04T02:33:37.372Z,6.30
2022-09-04T02:36:06.907Z,6.35
2022-09-04T02:38:52.064Z,7.78
2022-09-04T02:41:54.326Z,7.13
2022-09-04T02:44:24.167Z,5.97
2022-09-04T02:47:02.240Z,6.15
2022-09-04T02:49:48.463Z,6.45
2022-09-04T02:52:56.097Z,8.25
2022-09-04T02:56:09.569Z,5.47
2022-09-04T02:59:09.130Z,6.80
2022-09-04T03:02:01.679Z,6.22
2022-09-04T03:04:40.412Z,6.75
2022-09-04T03:07:17.901Z,6.15
2022-09-04T03:10:04.897Z,6.07
2022-09-04T03:13:05.240Z,6.75
2022-09-04T03:15:58.415Z,6.10
2022-09-04T03:19:10.434Z,6.65
2022-09-04T03:21:50.056Z,7.28
2022-09-04T03:24:38.208Z,8.55
2022-09-04T03:29:52.625Z,10.38
2022-09-04T03:32:42.755Z,8.93
2022-09-04T03:35:23.194Z,8.40
2022-09-04T03:37:50.235Z,9.48
2022-09-04T03:40:33.748Z,9.55
2022-09-04T03:43:38.798Z,9.10
2022-09-04T03:46:23.546Z,9.25
2022-09-04T03:49:06.203Z,9.70
2022-09-04T03:51:51.647Z,10.00
2022-09-04T03:54:26.004Z,10.05
2022-09-04T03:57:29.493Z,10.60
2022-09-04T04:00:07.238Z,9.70
2022-09-04T04:03:07.594Z,8.95
2022-09-04T04:05:39.597Z,10.10
2022-09-04T04:08:41.977Z,11.23
2022-09-04T04:11:46.174Z,10.07
2022-09-04T04:14:42.408Z,10.45
2022-09-04T04:17:27.173Z,10.00
2022-09-04T04:20:11.207Z,10.25
2022-09-04T04:23:00.927Z,9.80
2022-09-04T04:26:03.066Z,10.00
2022-09-04T04:28:41.387Z,9.70
2022-09-04T04:31:23.257Z,10.77
2022-09-04T04:34:15.386Z,10.82
2022-09-04T04:36:45.731Z,9.60
2022-09-04T04:39:36.385Z,10.35
2022-09-04T04:42:19.750Z,9.77
2022-09-04T04:45:26.678Z,9.98
2022-09-04T04:48:08.800Z,10.00
2022-09-04T04:51:01.025Z,11.10
2022-09-04T04:53:52.733Z,9.85
2022-09-04T04:56:38.049Z,11.05
2022-09-04T04:59:23.411Z,11.00
2022-09-04T05:02:11.947Z,10.60
2022-09-04T05:04:59.484Z,10.20
2022-09-04T05:07:36.972Z,10.80
2022-09-04T05:10:14.740Z,11.65
2022-09-04T05:12:56.292Z,10.57
2022-09-04T05:15:26.195Z,10.48
2022-09-04T05:17:58.506Z,10.75
2022-09-04T05:20:54.083Z,10.93
2022-09-04T05:23:56.659Z,10.60
2022-09-04T05:26:51.635Z,10.52
2022-09-04T05:29:47.490Z,11.68
2022-09-04T05:32:33.235Z,11.88
2022-09-04T05:35:08.126Z,11.60
2022-09-04T05:37:53.479Z,11.13
2022-09-04T05:40:32.938Z,11.25
2022-09-04T05:43:04.281Z,11.65
2022-09-04T05:46:02.795Z,12.07
2022-09-04T05:48:42.972Z,11.85
2022-09-04T05:51:34.908Z,12.13
2022-09-04T05:54:03.163Z,10.68
2022-09-04T05:56:54.255Z,12.75
2022-09-04T05:59:29.724Z,12.57
2022-09-04T06:02:15.103Z,12.05
2022-09-04T06:05:13.807Z,11.15
2022-09-04T06:08:01.562Z,12.27
2022-09-04T06:11:04.016Z,11.90
2022-09-04T06:13:47.559Z,12.50
2022-09-04T06:16:23.219Z,12.60
2022-09-04T06:18:56.173Z,13.55
2022-09-04T06:21:47.152Z,13.40
2022-09-04T06:24:34.872Z,13.43
2022-09-04T06:27:20.288Z,14.20
2022-09-04T06:30:04.642Z,12.73
2022-09-04T06:32:32.332Z,13.52
2022-09-04T06:35:14.522Z,14.57
2022-09-04T06:38:05.132Z,14.85
2022-09-04T06:40:48.746Z,15.68
2022-09-04T06:43:40.469Z,13.30
2022-09-04T06:46:10.097Z,14.75
2022-09-04T06:49:10.663Z,14.80
2022-09-04T06:51:40.450Z,16.35
2022-09-04T06:54:21.970Z,14.80
2022-09-04T06:57:09.027Z,15.27
2022-09-04T06:59:54.113Z,15.05
2022-09-04T07:02:59.855Z,15.68
2022-09-04T07:05:51.470Z,15.48
2022-09-04T07:08:34.415Z,15.55
2022-09-04T07:11:31.813Z,12.50
2022-09-04T07:14:33.230Z,16.25
2022-09-04T07:17:33.190Z,14.98
2022-09-04T07:20:34.703Z,15.02
2022-09-04T07:23:18.039Z,14.48
2022-09-04T07:25:50.835Z,15.13
2022-09-04T07:28:36.063Z,16.52
2022-09-04T07:31:20.484Z,15.13
2022-09-04T07:33:53.449Z,15.60
2022-09-04T07:36:29.558Z,16.00
2022-09-04T07:39:14.336Z,15.10
2022-09-04T07:41:48.940Z,15.10
2022-09-04T07:44:35.497Z,12.68
2022-09-04T07:47:17.436Z,14.52
2022-09-04T07:50:15.878Z,14.27
2022-09-04T07:53:07.331Z,15.27
2022-09-04T07:55:46.654Z,14.05
2022-09-04T07:58:49.460Z,14.02
2022-09-04T08:01:39.556Z,14.27
2022-09-04T08:04:39.871Z,15.93
2022-09-04T08:07:24.756Z,14.95
2022-09-04T08:10:05.215Z,14.18
2022-09-04T08:12:56.735Z,14.23
2022-09-04T08:15:26.233Z,15.45
2022-09-04T08:18:04.339Z,14.43
2022-09-04T08:20:37.930Z,15.65
2022-09-04T08:23:38.068Z,12.73
2022-09-04T08:26:48.319Z,14.10
2022-09-04T08:29:26.954Z,14.27
2022-09-04T08:32:09.504Z,14.23
2022-09-04T08:34:57.730Z,13.45
2022-09-04T08:38:01.257Z,13.93
2022-09-04T08:40:54.517Z,12.18
2022-09-04T08:44:03.800Z,13.15
2022-09-04T08:46:44.588Z,12.93
2022-09-04T08:49:39.114Z,12.88
2022-09-04T08:52:37.882Z,13.98
2022-09-04T08:55:05.775Z,14.02
2022-09-04T08:57:56.608Z,11.25
2022-09-04T09:00:55.642Z,13.48
2022-09-04T09:03:37.147Z,11.75
2022-09-04T09:06:34.610Z,12.90
2022-09-04T09:09:01.595Z,10.88
2022-09-04T09:11:53.472Z,11.57
2022-09-04T09:15:00.141Z,12.13
2022-09-04T09:17:45.428Z,11.25
2022-09-04T09:20:28.660Z,10.82
2022-09-04T09:23:18.251Z,9.93
2022-09-04T09:25:51.294Z,8.38
2022-09-04T09:28:17.960Z,9.65
2022-09-04T09:31:02.863Z,8.00
2022-09-04T09:34:00.590Z,7.32
2022-09-04T09:36:52.992Z,7.70
2022-09-04T09:39:41.084Z,8.38
2022-09-04T09:45:27.386Z,8.13
2022-09-04T09:47:55.168Z,8.57
2022-09-04T09:50:51.626Z,6.70
2022-09-04T09:53:36.309Z,6.03
2022-09-04T09:56:26.753Z,6.13
2022-09-04T09:59:39.919Z,5.80
2022-09-04T10:02:43.743Z,5.65
2022-09-04T10:05:19.439Z,4.03
2022-09-04T10:07:55.573Z,10.07
2022-09-04T10:10:28.450Z,5.03
2022-09-04T10:13:33.159Z,4.68
2022-09-04T10:16:19.235Z,4.32
2022-09-04T10:19:04.829Z,5.30
2022-09-04T10:21:58.945Z,6.05
2022-09-04T10:25:00.764Z,3.75
2022-09-04T10:28:11.311Z,5.47
2022-09-04T10:30:59.993Z,13.23
2022-09-04T10:33:44.619Z,3.38
2022-09-04T10:36:49.721Z,8.00
2022-09-04T10:39:54.100Z,3.47
2022-09-04T10:42:39.990Z,3.75
2022-09-04T10:45:21.212Z,3.17
2022-09-04T10:48:28.584Z,5.53
2022-09-04T10:53:55.005Z,6.60
2022-09-04T10:56:45.289Z,8.40
2022-09-04T10:59:40.084Z,9.45
2022-09-04T11:02:37.810Z,4.15
2022-09-04T11:06:00.216Z,4.53
2022-09-04T11:09:00.584Z,3.83
2022-09-04T11:11:52.898Z,3.55
2022-09-04T11:14:28.924Z,3.60
2022-09-04T11:16:57.281Z,5.45
2022-09-04T11:19:58.197Z,4.13
2022-09-04T11:22:58.984Z,3.65
2022-09-04T11:25:47.338Z,4.00
2022-09-04T11:28:40.280Z,4.25
2022-09-04T11:31:21.638Z,5.45
2022-09-04T11:34:09.134Z,4.70
2022-09-04T11:37:06.871Z,3.88
2022-09-04T11:43:19.588Z,3.38
2022-09-04T11:46:19.843Z,6.15
2022-09-04T11:48:58.717Z,6.50
2022-09-04T11:51:45.813Z,4.60
2022-09-04T11:54:12.634Z,2.40
2022-09-04T11:57:01.410Z,2.30
2022-09-04T11:59:43.591Z,3.40
2022-09-04T12:02:19.373Z,3.85
2022-09-04T12:05:05.529Z,6.63
2022-09-04T12:07:47.179Z,2.60
2022-09-04T12:10:30.233Z,3.08
2022-09-04T12:13:23.227Z,2.10
2022-09-04T12:16:14.836Z,2.67
2022-09-04T12:19:02.490Z,4.00
2022-09-04T12:21:53.053Z,2.50
2022-09-04T12:24:54.883Z,2.15
2022-09-04T12:28:18.442Z,2.30
2022-09-04T12:31:19.712Z,3.05
2022-09-04T12:34:05.321Z,2.08
2022-09-04T12:37:00.141Z,5.18
2022-09-04T12:39:46.835Z,3.47
2022-09-04T12:42:20.238Z,1.70
2022-09-04T12:44:52.917Z,1.95
2022-09-04T12:47:35.433Z,1.77
2022-09-04T12:50:16.079Z,1.55
2022-09-04T12:53:11.015Z,3.97
2022-09-04T12:55:41.708Z,4.10
2022-09-04T12:58:35.998Z,3.05
2022-09-04T13:01:36.543Z,2.13
2022-09-04T13:04:27.646Z,2.60
2022-09-04T13:07:15.904Z,2.25
2022-09-04T13:10:21.582Z,1.88
2022-09-04T13:13:01.012Z,2.65
2022-09-04T13:15:35.574Z,2.65
2022-09-04T13:18:14.431Z,3.03
2022-09-04T13:20:48.467Z,2.05
2022-09-04T13:23:53.077Z,3.40
2022-09-04T13:26:52.436Z,2.28
2022-09-04T13:29:36.158Z,3.40
2022-09-04T13:32:47.447Z,2.38
2022-09-04T13:35:19.709Z,3.13
2022-09-04T13:37:55.901Z,1.55
2022-09-04T13:40:43.287Z,2.42
2022-09-04T13:43:10.372Z,4.45
2022-09-04T13:45:46.246Z,1.67
2022-09-04T13:48:44.333Z,2.97
2022-09-04T13:51:16.555Z,1.70
2022-09-04T13:54:06.608Z,3.20
2022-09-04T13:56:52.770Z,3.08
2022-09-04T13:59:22.110Z,1.88
2022-09-04T14:01:54.853Z,2.42
2022-09-04T14:04:27.562Z,4.55
2022-09-04T14:07:02.369Z,2.10
2022-09-04T14:09:32.872Z,2.05
2022-09-04T14:12:15.516Z,1.80
2022-09-04T14:15:07.982Z,5.20
2022-09-04T14:17:45.018Z,2.10
2022-09-04T14:20:22.599Z,2.50
2022-09-04T14:23:03.174Z,3.30
2022-09-04T14:25:33.498Z,2.75
2022-09-04T14:28:20.401Z,1.85
2022-09-04T14:31:10.590Z,2.50
2022-09-04T14:33:54.128Z,2.33
2022-09-04T14:36:35.608Z,1.80
2022-09-04T14:39:42.573Z,3.55
2022-09-04T14:42:42.531Z,2.45
2022-09-04T14:45:18.280Z,4.68
2022-09-04T14:47:57.225Z,5.82
2022-09-04T14:50:28.531Z,1.83
2022-09-04T14:53:04.503Z,1.80
2022-09-04T14:55:34.038Z,3.45
2022-09-04T14:58:20.295Z,2.00
2022-09-04T15:00:59.639Z,2.40
2022-09-04T15:03:34.551Z,2.35
2022-09-04T15:06:14.273Z,2.92
2022-09-04T15:08:41.064Z,3.63
2022-09-04T15:11:31.932Z,1.75
2022-09-04T15:14:06.764Z,1.58
2022-09-04T15:16:39.661Z,2.40
2022-09-04T15:19:25.057Z,3.33
2022-09-04T15:22:06.596Z,3.80
2022-09-04T15:24:48.085Z,1.80
2022-09-04T15:27:42.660Z,1.85
2022-09-04T15:30:22.596Z,1.67
2022-09-04T15:33:02.573Z,2.83
2022-09-04T15:35:33.674Z,1.55
2022-09-04T15:38:22.578Z,2.28
2022-09-04T15:41:15.538Z,4.00
2022-09-04T15:43:52.105Z,2.50
2022-09-04T15:46:40.858Z,2.30
2022-09-04T15:49:42.377Z,3.83
2022-09-04T15:52:30.884Z,5.72
2022-09-04T15:55:30.647Z,2.35
2022-09-04T15:58:08.506Z,3.05
2022-09-04T16:00:41.016Z,4.05
2022-09-04T16:03:44.115Z,3.17
2022-09-04T16:06:32.393Z,1.90
2022-09-04T16:09:20.281Z,3.72
2022-09-04T16:14:36.679Z,2.78
2022-09-04T16:17:15.994Z,1.77
2022-09-04T16:20:12.185Z,2.50
2022-09-04T16:23:04.303Z,2.53
2022-09-04T16:25:49.919Z,4.00
2022-09-04T16:28:31.698Z,1.92
2022-09-04T16:30:58.445Z,1.38
2022-09-04T16:33:35.623Z,2.35
2022-09-04T16:36:19.847Z,6.93
2022-09-04T16:39:07.335Z,2.15
2022-09-04T16:41:44.883Z,2.95
2022-09-04T16:44:29.893Z,3.22
2022-09-04T16:47:04.701Z,1.77
2022-09-04T16:49:36.209Z,3.47
2022-09-04T16:52:41.674Z,1.20
2022-09-04T16:55:21.557Z,2.30
2022-09-04T16:58:46.112Z,5.00
2022-09-04T17:01:29.421Z,4.28
2022-09-04T17:04:20.839Z,1.75
2022-09-04T17:07:18.376Z,1.13
2022-09-04T17:09:57.568Z,2.13
2022-09-04T17:12:53.305Z,2.55
2022-09-04T17:15:29.121Z,4.43
2022-09-04T17:17:58.750Z,2.30
2022-09-04T17:21:26.123Z,2.47
2022-09-04T17:28:55.988Z,1.30
2022-09-04T17:29:12.271Z,0.80
2022-09-04T17:30:01.250Z,4.65
2022-09-04T17:34:32.813Z,1.00
2022-09-04T17:40:44.603Z,1.90
2022-09-04T17:40:47.896Z,2.85
2022-09-04T17:42:09.416Z,2.20
2022-09-04T17:45:10.239Z,3.60
2022-09-04T17:47:42.528Z,3.38
2022-09-04T17:50:16.499Z,1.98
2022-09-04T17:53:00.190Z,3.17
2022-09-04T17:55:34.984Z,1.92
2022-09-04T17:58:21.762Z,2.85
2022-09-04T18:01:15.047Z,1.10
2022-09-04T18:04:21.797Z,1.55
2022-09-04T18:07:29.033Z,4.47
2022-09-04T18:10:43.938Z,1.02
2022-09-04T18:13:37.831Z,2.17
2022-09-04T18:16:18.079Z,3.35
2022-09-04T18:18:58.300Z,1.98
2022-09-04T18:21:37.086Z,4.82
2022-09-04T18:24:12.494Z,6.05
2022-09-04T18:26:46.842Z,2.97
2022-09-04T18:31:02.496Z,1.90
2022-09-04T18:37:20.117Z,3.92
2022-09-04T18:37:25.137Z,2.00
2022-09-04T18:38:27.302Z,3.15
2022-09-04T18:44:02.222Z,3.53
2022-09-04T18:50:29.500Z,3.38
2022-09-04T18:50:31.048Z,4.20
2022-09-04T18:50:45.735Z,3.35
2022-09-04T18:52:23.243Z,3.45
2022-09-04T18:55:01.745Z,7.65
2022-09-04T18:57:40.571Z,2.38
2022-09-04T19:00:13.455Z,3.08
2022-09-04T19:03:16.005Z,3.95
2022-09-04T19:05:46.774Z,3.00
2022-09-04T19:08:30.766Z,2.15
2022-09-04T19:11:20.627Z,2.55
2022-09-04T19:13:51.622Z,2.35
2022-09-04T19:16:25.650Z,4.05
2022-09-04T19:19:11.374Z,4.38
2022-09-04T19:22:01.773Z,1.20
2022-09-04T19:24:51.709Z,2.85
2022-09-04T19:27:26.773Z,1.95
2022-09-04T19:30:03.534Z,1.35
2022-09-04T19:33:00.362Z,4.22
2022-09-04T19:35:36.072Z,1.95
2022-09-04T19:42:10.813Z,4.53
2022-09-04T19:46:09.468Z,2.72
2022-09-04T19:46:16.442Z,3.55
2022-09-04T19:47:03.657Z,3.35
2022-09-04T19:50:48.847Z,2.17
2022-09-04T19:53:31.647Z,1.60
2022-09-04T19:55:39.117Z,3.28
2022-09-04T19:58:20.066Z,3.72
2022-09-04T20:00:54.541Z,3.00
2022-09-04T20:03:29.773Z,1.98
2022-09-04T20:06:21.645Z,2.50
2022-09-04T20:09:11.934Z,2.80
2022-09-04T20:11:57.916Z,3.10
2022-09-04T20:14:31.044Z,3.05
2022-09-04T20:17:21.384Z,2.08
2022-09-04T20:19:54.749Z,1.42
2022-09-04T20:22:24.919Z,2.38
2022-09-04T20:25:14.513Z,3.40
2022-09-04T20:27:48.514Z,2.40
2022-09-04T20:30:26.602Z,2.20
2022-09-04T20:36:03.009Z,2.35
2022-09-04T20:38:42.833Z,2.03
2022-09-04T20:41:12.529Z,3.28
2022-09-04T20:44:13.616Z,2.47
2022-09-04T20:52:40.655Z,3.33
2022-09-04T20:52:51.142Z,3.47
2022-09-04T20:53:09.545Z,2.58
2022-09-04T20:55:59.032Z,3.47
2022-09-04T21:03:13.349Z,4.63
2022-09-04T21:03:22.269Z,4.25
2022-09-04T21:05:24.080Z,2.63
2022-09-04T21:08:03.582Z,5.13
2022-09-04T21:10:33.345Z,3.75
2022-09-04T21:13:19.940Z,3.35
2022-09-04T21:15:46.570Z,5.32
2022-09-04T21:19:06.476Z,4.85
2022-09-04T21:21:54.980Z,5.88
2022-09-04T21:24:21.627Z,5.40
2022-09-04T21:27:15.932Z,5.53
2022-09-04T21:30:06.112Z,7.15
2022-09-04T21:33:26.775Z,4.72
2022-09-04T21:36:25.415Z,5.00
2022-09-04T21:38:49.555Z,3.33
2022-09-04T21:41:45.491Z,4.43
2022-09-04T21:44:29.878Z,3.55
2022-09-04T21:47:20.219Z,2.60
2022-09-04T21:50:00.429Z,3.25
2022-09-04T21:52:55.987Z,2.45
2022-09-04T22:01:03.395Z,2.45
2022-09-04T22:02:40.288Z,3.33
2022-09-04T22:02:41.129Z,3.00
2022-09-04T22:05:00.719Z,4.45
2022-09-04T22:10:00.505Z,3.72
2022-09-04T22:13:41.420Z,2.33
2022-09-04T22:13:57.320Z,3.55
2022-09-04T22:16:45.745Z,3.70
2022-09-04T22:19:25.491Z,2.50
2022-09-04T22:22:41.742Z,2.85
2022-09-04T22:25:30.169Z,2.78
2022-09-04T22:28:21.959Z,3.10
2022-09-04T22:31:06.753Z,3.72
2022-09-04T22:34:15.847Z,3.13
2022-09-04T22:37:14.970Z,2.75
2022-09-04T22:42:35.839Z,2.63
2022-09-04T22:45:16.389Z,2.90
2022-09-04T22:48:12.361Z,4.20
2022-09-04T22:51:04.255Z,2.42
2022-09-04T22:53:51.893Z,4.00
2022-09-04T22:56:49.392Z,3.13
2022-09-04T22:59:41.936Z,3.20
2022-09-04T23:05:47.578Z,2.35
2022-09-04T23:13:52.088Z,3.00
2022-09-04T23:14:45.756Z,3.78
2022-09-04T23:17:26.660Z,3.92
2022-09-04T23:26:36.924Z,2.92
2022-09-04T23:26:43.219Z,4.70
2022-09-04T23:26:59.908Z,2.42
2022-09-04T23:29:48.876Z,2.53
2022-09-04T23:32:27.168Z,3.67
2022-09-04T23:35:14.493Z,3.08
2022-09-04T23:37:53.241Z,2.60
2022-09-04T23:40:59.092Z,3.45
2022-09-04T23:43:40.065Z,2.60
2022-09-04T23:46:23.917Z,2.50
2022-09-04T23:49:23.974Z,2.63
2022-09-04T23:52:04.907Z,2.88
2022-09-04T23:55:03.427Z,4.60
2022-09-04T23:57:58.409Z,3.45
